sensor_id;sensor_type;location;lat;lon;timestamp;pressure;altitude;pressure_sealevel;temperature;humidity
78800;BME280;68148;55.328;86.106;2023-04-01T00:01:00;102424.00;;;-12.18;60.48
78800;BME280;68148;55.328;86.106;2023-04-01T00:03:26;102424.88;;;-12.17;60.36
78800;BME280;68148;55.328;86.106;2023-04-01T00:05:53;102427.38;;;-12.20;60.08
78800;BME280;68148;55.328;86.106;2023-04-01T00:08:20;102432.50;;;-12.17;60.32
78800;BME280;68148;55.328;86.106;2023-04-01T00:10:46;102434.19;;;-12.18;60.38
78800;BME280;68148;55.328;86.106;2023-04-01T00:13:13;102448.63;;;-12.18;60.17
78800;BME280;68148;55.328;86.106;2023-04-01T00:15:39;102453.69;;;-12.18;60.82
78800;BME280;68148;55.328;86.106;2023-04-01T00:18:05;102453.75;;;-12.15;60.34
78800;BME280;68148;55.328;86.106;2023-04-01T00:20:30;102463.19;;;-12.08;60.46
78800;BME280;68148;55.328;86.106;2023-04-01T00:22:56;102462.44;;;-12.01;60.77
78800;BME280;68148;55.328;86.106;2023-04-01T00:25:23;102465.91;;;-11.97;60.00
78800;BME280;68148;55.328;86.106;2023-04-01T00:27:49;102471.91;;;-11.92;60.70
78800;BME280;68148;55.328;86.106;2023-04-01T00:30:15;102477.91;;;-11.89;60.14
78800;BME280;68148;55.328;86.106;2023-04-01T00:32:41;102473.72;;;-11.85;59.97
78800;BME280;68148;55.328;86.106;2023-04-01T00:35:07;102477.97;;;-11.84;59.79
78800;BME280;68148;55.328;86.106;2023-04-01T00:37:35;102472.91;;;-11.82;59.48
78800;BME280;68148;55.328;86.106;2023-04-01T00:40:01;102477.22;;;-11.77;59.20
78800;BME280;68148;55.328;86.106;2023-04-01T00:42:27;102484.09;;;-11.71;59.08
78800;BME280;68148;55.328;86.106;2023-04-01T00:44:54;102488.28;;;-11.73;59.53
78800;BME280;68148;55.328;86.106;2023-04-01T00:47:21;102493.47;;;-11.67;59.51
78800;BME280;68148;55.328;86.106;2023-04-01T00:49:51;102488.41;;;-11.66;59.32
78800;BME280;68148;55.328;86.106;2023-04-01T00:52:20;102494.41;;;-11.61;58.96
78800;BME280;68148;55.328;86.106;2023-04-01T00:54:50;102503.84;;;-11.55;58.89
78800;BME280;68148;55.328;86.106;2023-04-01T00:57:35;102502.22;;;-11.50;58.88
78800;BME280;68148;55.328;86.106;2023-04-01T01:00:05;102510.88;;;-11.39;58.88
78800;BME280;68148;55.328;86.106;2023-04-01T01:02:33;102504.22;;;-11.27;57.87
78800;BME280;68148;55.328;86.106;2023-04-01T01:04:59;102509.41;;;-11.21;57.04
78800;BME280;68148;55.328;86.106;2023-04-01T01:10:34;102520.69;;;-11.04;56.05
78800;BME280;68148;55.328;86.106;2023-04-01T01:13:14;102520.78;;;-10.95;55.90
78800;BME280;68148;55.328;86.106;2023-04-01T01:16:09;102524.25;;;-10.90;55.80
78800;BME280;68148;55.328;86.106;2023-04-01T01:19:02;102530.19;;;-10.88;55.48
78800;BME280;68148;55.328;86.106;2023-04-01T01:37:39;102553.53;;;-10.57;54.88
78800;BME280;68148;55.328;86.106;2023-04-01T01:40:08;102549.34;;;-10.50;54.36
78800;BME280;68148;55.328;86.106;2023-04-01T01:42:38;102553.69;;;-10.43;53.92
78800;BME280;68148;55.328;86.106;2023-04-01T01:45:06;102553.72;;;-10.40;54.23
78800;BME280;68148;55.328;86.106;2023-04-01T01:47:34;102554.63;;;-10.35;53.54
78800;BME280;68148;55.328;86.106;2023-04-01T01:50:02;102558.97;;;-10.25;53.74
78800;BME280;68148;55.328;86.106;2023-04-01T01:52:29;102555.66;;;-10.15;52.81
78800;BME280;68148;55.328;86.106;2023-04-01T01:54:57;102559.88;;;-10.15;52.72
78800;BME280;68148;55.328;86.106;2023-04-01T01:57:26;102556.53;;;-10.10;52.32
78800;BME280;68148;55.328;86.106;2023-04-01T01:59:58;102551.44;;;-10.08;51.89
78800;BME280;68148;55.328;86.106;2023-04-01T02:02:25;102561.81;;;-9.91;51.52
78800;BME280;68148;55.328;86.106;2023-04-01T02:04:52;102562.66;;;-9.91;51.30
78800;BME280;68148;55.328;86.106;2023-04-01T02:07:26;102562.50;;;-10.09;50.90
78800;BME280;68148;55.328;86.106;2023-04-01T02:09:54;102566.84;;;-9.99;51.98
78800;BME280;68148;55.328;86.106;2023-04-01T02:12:21;102578.00;;;-9.88;51.82
78800;BME280;68148;55.328;86.106;2023-04-01T02:15:07;102579.78;;;-9.80;50.92
78800;BME280;68148;55.328;86.106;2023-04-01T02:17:38;102579.78;;;-9.79;50.69
78800;BME280;68148;55.328;86.106;2023-04-01T02:20:20;102584.75;;;-9.96;49.77
78800;BME280;68148;55.328;86.106;2023-04-01T02:22:54;102591.47;;;-10.05;49.98
78800;BME280;68148;55.328;86.106;2023-04-01T02:25:34;102603.63;;;-9.80;50.15
78800;BME280;68148;55.328;86.106;2023-04-01T02:28:02;102599.41;;;-9.75;50.61
78800;BME280;68148;55.328;86.106;2023-04-01T02:30:33;102596.94;;;-9.67;48.94
78800;BME280;68148;55.328;86.106;2023-04-01T02:33:00;102599.44;;;-9.69;49.34
78800;BME280;68148;55.328;86.106;2023-04-01T02:35:27;102593.56;;;-9.63;49.43
78800;BME280;68148;55.328;86.106;2023-04-01T02:37:53;102596.25;;;-9.43;49.86
78800;BME280;68148;55.328;86.106;2023-04-01T02:40:20;102598.84;;;-9.39;47.45
78800;BME280;68148;55.328;86.106;2023-04-01T02:42:46;102601.31;;;-9.46;48.26
78800;BME280;68148;55.328;86.106;2023-04-01T02:45:12;102606.56;;;-9.32;47.91
78800;BME280;68148;55.328;86.106;2023-04-01T02:47:38;102608.25;;;-9.35;47.56
78800;BME280;68148;55.328;86.106;2023-04-01T02:50:05;102604.88;;;-9.26;47.62
78800;BME280;68148;55.328;86.106;2023-04-01T02:52:32;102624.44;;;-9.36;46.91
78800;BME280;68148;55.328;86.106;2023-04-01T02:54:58;102615.09;;;-9.30;47.34
78800;BME280;68148;55.328;86.106;2023-04-01T02:57:24;102620.28;;;-9.20;45.92
78800;BME280;68148;55.328;86.106;2023-04-01T02:59:52;102621.13;;;-9.24;46.36
78800;BME280;68148;55.328;86.106;2023-04-01T03:02:17;102620.22;;;-9.26;46.92
78800;BME280;68148;55.328;86.106;2023-04-01T03:04:44;102622.84;;;-9.20;46.82
78800;BME280;68148;55.328;86.106;2023-04-01T03:07:10;102626.28;;;-9.16;46.80
78800;BME280;68148;55.328;86.106;2023-04-01T03:09:39;102628.06;;;-9.03;47.12
78800;BME280;68148;55.328;86.106;2023-04-01T03:12:08;102631.47;;;-9.04;45.73
78800;BME280;68148;55.328;86.106;2023-04-01T03:14:34;102634.09;;;-8.95;45.68
78800;BME280;68148;55.328;86.106;2023-04-01T03:17:00;102634.03;;;-9.02;45.12
78800;BME280;68148;55.328;86.106;2023-04-01T03:19:26;102643.50;;;-8.89;46.59
78800;BME280;68148;55.328;86.106;2023-04-01T03:21:52;102644.38;;;-8.84;46.28
78800;BME280;68148;55.328;86.106;2023-04-01T03:24:19;102654.63;;;-8.78;45.86
78800;BME280;68148;55.328;86.106;2023-04-01T03:26:46;102647.75;;;-8.87;45.65
78800;BME280;68148;55.328;86.106;2023-04-01T03:29:11;102656.25;;;-8.95;46.16
78800;BME280;68148;55.328;86.106;2023-04-01T03:31:38;102657.97;;;-8.94;45.90
78800;BME280;68148;55.328;86.106;2023-04-01T03:34:04;102663.94;;;-8.94;45.75
78800;BME280;68148;55.328;86.106;2023-04-01T03:36:29;102652.00;;;-8.92;45.54
78800;BME280;68148;55.328;86.106;2023-04-01T03:38:55;102655.44;;;-8.88;45.79
78800;BME280;68148;55.328;86.106;2023-04-01T03:41:21;102661.41;;;-8.88;45.85
78800;BME280;68148;55.328;86.106;2023-04-01T03:43:47;102664.03;;;-8.78;45.88
78800;BME280;68148;55.328;86.106;2023-04-01T03:46:18;102662.38;;;-8.72;46.15
78800;BME280;68148;55.328;86.106;2023-04-01T03:48:44;102653.88;;;-8.62;45.59
78800;BME280;68148;55.328;86.106;2023-04-01T03:51:10;102659.84;;;-8.61;45.73
78800;BME280;68148;55.328;86.106;2023-04-01T03:53:35;102659.81;;;-8.70;46.26
78800;BME280;68148;55.328;86.106;2023-04-01T03:56:08;102658.19;;;-8.56;45.38
78800;BME280;68148;55.328;86.106;2023-04-01T03:58:34;102662.53;;;-8.37;45.98
78800;BME280;68148;55.328;86.106;2023-04-01T04:01:00;102660.81;;;-8.28;45.30
78800;BME280;68148;55.328;86.106;2023-04-01T04:03:27;102670.22;;;-8.37;44.57
78800;BME280;68148;55.328;86.106;2023-04-01T04:05:53;102661.69;;;-8.20;45.27
78800;BME280;68148;55.328;86.106;2023-04-01T04:08:18;102662.56;;;-8.15;44.77
78800;BME280;68148;55.328;86.106;2023-04-01T04:10:44;102660.03;;;-7.97;43.38
78800;BME280;68148;55.328;86.106;2023-04-01T04:13:10;102660.88;;;-8.06;44.26
78800;BME280;68148;55.328;86.106;2023-04-01T04:15:36;102663.44;;;-8.07;44.07
78800;BME280;68148;55.328;86.106;2023-04-01T04:18:02;102661.78;;;-7.96;42.92
78800;BME280;68148;55.328;86.106;2023-04-01T04:20:28;102655.75;;;-8.06;43.80
78800;BME280;68148;55.328;86.106;2023-04-01T04:22:54;102660.00;;;-8.14;43.58
78800;BME280;68148;55.328;86.106;2023-04-01T04:25:20;102666.88;;;-8.02;43.05
78800;BME280;68148;55.328;86.106;2023-04-01T04:27:47;102662.59;;;-8.08;43.16
78800;BME280;68148;55.328;86.106;2023-04-01T04:30:13;102673.75;;;-7.86;43.99
78800;BME280;68148;55.328;86.106;2023-04-01T04:32:40;102667.78;;;-7.80;43.48
78800;BME280;68148;55.328;86.106;2023-04-01T04:35:06;102653.28;;;-7.64;42.48
78800;BME280;68148;55.328;86.106;2023-04-01T04:37:32;102656.69;;;-7.71;42.94
78800;BME280;68148;55.328;86.106;2023-04-01T04:39:57;102651.56;;;-7.50;44.24
78800;BME280;68148;55.328;86.106;2023-04-01T04:42:23;102649.00;;;-7.30;43.30
78800;BME280;68148;55.328;86.106;2023-04-01T04:44:49;102648.16;;;-7.18;43.12
78800;BME280;68148;55.328;86.106;2023-04-01T04:47:15;102648.13;;;-7.04;42.17
78800;BME280;68148;55.328;86.106;2023-04-01T04:49:41;102642.16;;;-7.22;42.78
78800;BME280;68148;55.328;86.106;2023-04-01T04:52:07;102640.44;;;-7.11;42.91
78800;BME280;68148;55.328;86.106;2023-04-01T04:54:33;102643.84;;;-7.09;41.89
78800;BME280;68148;55.328;86.106;2023-04-01T04:56:59;102656.69;;;-7.21;41.38
78800;BME280;68148;55.328;86.106;2023-04-01T04:59:24;102648.16;;;-7.27;42.53
78800;BME280;68148;55.328;86.106;2023-04-01T05:01:50;102640.47;;;-7.23;42.03
78800;BME280;68148;55.328;86.106;2023-04-01T05:04:16;102643.00;;;-7.12;42.10
78800;BME280;68148;55.328;86.106;2023-04-01T05:06:42;102639.56;;;-6.93;42.59
78800;BME280;68148;55.328;86.106;2023-04-01T05:09:09;102632.69;;;-6.85;42.14
78800;BME280;68148;55.328;86.106;2023-04-01T05:11:35;102644.63;;;-6.67;41.36
78800;BME280;68148;55.328;86.106;2023-04-01T05:14:00;102654.94;;;-6.91;41.63
78800;BME280;68148;55.328;86.106;2023-04-01T05:16:26;102643.84;;;-6.93;41.11
78800;BME280;68148;55.328;86.106;2023-04-01T05:18:52;102647.22;;;-6.84;41.16
78800;BME280;68148;55.328;86.106;2023-04-01T05:21:18;102645.56;;;-6.89;40.99
78800;BME280;68148;55.328;86.106;2023-04-01T05:23:44;102637.88;;;-7.15;42.34
78800;BME280;68148;55.328;86.106;2023-04-01T05:26:12;102642.94;;;-6.75;42.07
78800;BME280;68148;55.328;86.106;2023-04-01T05:28:38;102638.63;;;-6.73;41.30
78800;BME280;68148;55.328;86.106;2023-04-01T05:31:05;102631.75;;;-6.54;41.61
78800;BME280;68148;55.328;86.106;2023-04-01T05:33:31;102642.81;;;-6.37;40.68
78800;BME280;68148;55.328;86.106;2023-04-01T05:36:13;102633.38;;;-6.40;40.61
78800;BME280;68148;55.328;86.106;2023-04-01T05:38:39;102633.44;;;-6.53;40.90
78800;BME280;68148;55.328;86.106;2023-04-01T05:41:06;102628.34;;;-6.64;41.91
78800;BME280;68148;55.328;86.106;2023-04-01T05:43:31;102629.09;;;-6.36;41.60
78800;BME280;68148;55.328;86.106;2023-04-01T05:45:58;102631.53;;;-6.12;40.94
78800;BME280;68148;55.328;86.106;2023-04-01T05:48:23;102632.34;;;-6.03;39.71
78800;BME280;68148;55.328;86.106;2023-04-01T05:50:49;102637.53;;;-6.11;40.07
78800;BME280;68148;55.328;86.106;2023-04-01T05:53:15;102640.97;;;-6.12;40.02
78800;BME280;68148;55.328;86.106;2023-04-01T05:55:41;102632.22;;;-5.91;39.92
78800;BME280;68148;55.328;86.106;2023-04-01T05:58:07;102644.19;;;-5.86;39.50
78800;BME280;68148;55.328;86.106;2023-04-01T06:00:33;102639.06;;;-5.89;39.27
78800;BME280;68148;55.328;86.106;2023-04-01T06:02:59;102643.28;;;-5.77;39.41
78800;BME280;68148;55.328;86.106;2023-04-01T06:05:29;102643.47;;;-6.05;39.67
78800;BME280;68148;55.328;86.106;2023-04-01T06:08:01;102635.38;;;-5.53;38.75
78800;BME280;68148;55.328;86.106;2023-04-01T06:40:51;102614.72;;;-5.43;38.45
78800;BME280;68148;55.328;86.106;2023-04-01T06:46:44;102616.28;;;-5.25;37.91
78800;BME280;68148;55.328;86.106;2023-04-01T06:58:04;102602.34;;;-5.06;37.68
78800;BME280;68148;55.328;86.106;2023-04-01T07:00:36;102605.13;;;-5.24;38.84
78800;BME280;68148;55.328;86.106;2023-04-01T07:05:41;102593.78;;;-5.10;38.00
78800;BME280;68148;55.328;86.106;2023-04-01T07:08:18;102582.53;;;-4.96;37.31
78800;BME280;68148;55.328;86.106;2023-04-01T07:10:53;102591.16;;;-5.04;37.36
78800;BME280;68148;55.328;86.106;2023-04-01T07:13:25;102579.91;;;-4.95;37.64
78800;BME280;68148;55.328;86.106;2023-04-01T07:16:15;102584.03;;;-4.80;37.62
78800;BME280;68148;55.328;86.106;2023-04-01T07:18:56;102581.41;;;-4.75;37.19
78800;BME280;68148;55.328;86.106;2023-04-01T07:21:36;102586.34;;;-4.57;36.04
78800;BME280;68148;55.328;86.106;2023-04-01T07:24:12;102594.06;;;-4.57;36.20
78800;BME280;68148;55.328;86.106;2023-04-01T07:26:41;102579.63;;;-4.69;36.18
78800;BME280;68148;55.328;86.106;2023-04-01T07:29:13;102565.91;;;-4.72;37.21
78800;BME280;68148;55.328;86.106;2023-04-01T07:34:28;102575.94;;;-4.49;35.64
78800;BME280;68148;55.328;86.106;2023-04-01T07:37:02;102565.72;;;-4.59;35.63
78800;BME280;68148;55.328;86.106;2023-04-01T07:39:43;102587.06;;;-4.47;34.62
78800;BME280;68148;55.328;86.106;2023-04-01T07:42:44;102584.53;;;-4.50;36.75
78800;BME280;68148;55.328;86.106;2023-04-01T07:45:23;102582.47;;;-4.25;34.96
78800;BME280;68148;55.328;86.106;2023-04-01T07:48:12;102572.47;;;-4.47;36.09
78800;BME280;68148;55.328;86.106;2023-04-01T07:53:58;102569.91;;;-3.90;34.83
78800;BME280;68148;55.328;86.106;2023-04-01T07:56:41;102573.66;;;-4.09;35.34
78800;BME280;68148;55.328;86.106;2023-04-01T07:59:29;102565.19;;;-4.17;35.37
78800;BME280;68148;55.328;86.106;2023-04-01T08:05:11;102573.94;;;-3.73;33.89
78800;BME280;68148;55.328;86.106;2023-04-01T08:23:49;102567.63;;;-3.54;33.87
78800;BME280;68148;55.328;86.106;2023-04-01T08:31:37;102545.72;;;-3.83;34.46
78800;BME280;68148;55.328;86.106;2023-04-01T08:34:14;102535.41;;;-3.81;34.57
78800;BME280;68148;55.328;86.106;2023-04-01T08:36:45;102565.28;;;-3.68;32.02
78800;BME280;68148;55.328;86.106;2023-04-01T08:39:18;102563.84;;;-3.87;32.30
78800;BME280;68148;55.328;86.106;2023-04-01T08:45:14;102555.84;;;-3.70;32.41
78800;BME280;68148;55.328;86.106;2023-04-01T08:48:19;102554.97;;;-3.69;32.99
78800;BME280;68148;55.328;86.106;2023-04-01T08:54:20;102567.34;;;-3.39;33.44
78800;BME280;68148;55.328;86.106;2023-04-01T09:02:50;102560.56;;;-3.44;32.31
78800;BME280;68148;55.328;86.106;2023-04-01T09:05:28;102566.22;;;-3.25;32.16
78800;BME280;68148;55.328;86.106;2023-04-01T09:11:07;102566.69;;;-3.50;32.06
78800;BME280;68148;55.328;86.106;2023-04-01T09:17:07;102544.31;;;-3.49;31.63
78800;BME280;68148;55.328;86.106;2023-04-01T09:22:21;102544.34;;;-3.51;31.82
78800;BME280;68148;55.328;86.106;2023-04-01T09:27:41;102548.16;;;-3.25;31.18
78800;BME280;68148;55.328;86.106;2023-04-01T09:35:27;102532.38;;;-3.10;30.55
78800;BME280;68148;55.328;86.106;2023-04-01T09:40:44;102524.06;;;-3.26;32.08
78800;BME280;68148;55.328;86.106;2023-04-01T09:43:52;102523.25;;;-3.28;31.47
78800;BME280;68148;55.328;86.106;2023-04-01T09:49:40;102519.47;;;-3.10;31.75
78800;BME280;68148;55.328;86.106;2023-04-01T09:57:25;102510.03;;;-3.11;30.78
78800;BME280;68148;55.328;86.106;2023-04-01T10:05:39;102494.38;;;-3.05;31.52
78800;BME280;68148;55.328;86.106;2023-04-01T10:16:19;102500.78;;;-3.23;31.24
78800;BME280;68148;55.328;86.106;2023-04-01T10:34:05;102474.72;;;-3.11;30.20
78800;BME280;68148;55.328;86.106;2023-04-01T10:39:34;102479.88;;;-3.11;30.20
78800;BME280;68148;55.328;86.106;2023-04-01T10:51:44;102490.38;;;-3.20;30.89
78800;BME280;68148;55.328;86.106;2023-04-01T10:54:43;102485.75;;;-3.04;31.21
78800;BME280;68148;55.328;86.106;2023-04-01T11:05:18;102499.34;;;-2.96;30.53
78800;BME280;68148;55.328;86.106;2023-04-01T11:24:54;102508.84;;;-3.40;32.11
78800;BME280;68148;55.328;86.106;2023-04-01T11:32:54;102515.47;;;-3.25;31.97
78800;BME280;68148;55.328;86.106;2023-04-01T11:35:37;102518.88;;;-3.24;31.26
78800;BME280;68148;55.328;86.106;2023-04-01T11:38:31;102524.53;;;-3.52;31.72
78800;BME280;68148;55.328;86.106;2023-04-01T11:41:26;102521.09;;;-3.51;32.33
78800;BME280;68148;55.328;86.106;2023-04-01T11:44:19;102525.47;;;-3.56;32.56
78800;BME280;68148;55.328;86.106;2023-04-01T11:49:42;102519.69;;;-3.67;34.63
78800;BME280;68148;55.328;86.106;2023-04-01T11:52:21;102526.22;;;-3.49;33.48
78800;BME280;68148;55.328;86.106;2023-04-01T11:55:35;102535.97;;;-3.64;33.74
78800;BME280;68148;55.328;86.106;2023-04-01T11:58:28;102528.44;;;-3.78;33.87
78800;BME280;68148;55.328;86.106;2023-04-01T12:01:23;102532.81;;;-3.83;34.00
78800;BME280;68148;55.328;86.106;2023-04-01T12:12:32;102527.22;;;-4.09;35.75
78800;BME280;68148;55.328;86.106;2023-04-01T12:15:20;102522.69;;;-3.95;35.63
78800;BME280;68148;55.328;86.106;2023-04-01T12:17:51;102522.56;;;-3.87;35.72
78800;BME280;68148;55.328;86.106;2023-04-01T12:32:05;102548.03;;;-4.21;35.89
78800;BME280;68148;55.328;86.106;2023-04-01T12:34:59;102555.59;;;-4.71;36.42
78800;BME280;68148;55.328;86.106;2023-04-01T12:46:22;102550.00;;;-5.05;37.68
78800;BME280;68148;55.328;86.106;2023-04-01T12:49:19;102558.72;;;-5.20;38.21
78800;BME280;68148;55.328;86.106;2023-04-01T12:52:04;102564.91;;;-5.38;38.96
78800;BME280;68148;55.328;86.106;2023-04-01T13:08:33;102582.25;;;-5.58;39.22
78800;BME280;68148;55.328;86.106;2023-04-01T13:16:53;102593.25;;;-5.41;38.04
78800;BME280;68148;55.328;86.106;2023-04-01T13:19:36;102586.66;;;-5.71;39.47
78800;BME280;68148;55.328;86.106;2023-04-01T13:22:10;102598.69;;;-5.76;39.20
78800;BME280;68148;55.328;86.106;2023-04-01T13:25:25;102593.50;;;-5.68;38.94
78800;BME280;68148;55.328;86.106;2023-04-01T13:27:53;102600.41;;;-5.76;39.44
78800;BME280;68148;55.328;86.106;2023-04-01T13:30:29;102592.72;;;-5.83;39.37
78800;BME280;68148;55.328;86.106;2023-04-01T13:35:39;102603.94;;;-5.90;39.81
78800;BME280;68148;55.328;86.106;2023-04-01T13:44:16;102615.94;;;-5.89;39.95
78800;BME280;68148;55.328;86.106;2023-04-01T14:09:25;102610.25;;;-6.37;41.76
78800;BME280;68148;55.328;86.106;2023-04-01T14:15:11;102599.19;;;-6.49;41.87
78800;BME280;68148;55.328;86.106;2023-04-01T14:20:38;102600.06;;;-6.57;41.66
78800;BME280;68148;55.328;86.106;2023-04-01T14:31:44;102600.97;;;-6.70;42.03
78800;BME280;68148;55.328;86.106;2023-04-01T14:34:25;102598.41;;;-6.73;42.20
78800;BME280;68148;55.328;86.106;2023-04-01T14:40:22;102590.75;;;-6.84;42.66
78800;BME280;68148;55.328;86.106;2023-04-01T14:48:57;102597.63;;;-6.89;44.71
78800;BME280;68148;55.328;86.106;2023-04-01T14:51:38;102599.34;;;-6.95;43.89
78800;BME280;68148;55.328;86.106;2023-04-01T14:56:43;102599.38;;;-7.08;43.21
78800;BME280;68148;55.328;86.106;2023-04-01T15:13:48;102600.22;;;-6.98;40.32
78800;BME280;68148;55.328;86.106;2023-04-01T15:19:58;102606.22;;;-7.10;41.51
78800;BME280;68148;55.328;86.106;2023-04-01T15:28:28;102607.09;;;-7.34;45.77
78800;BME280;68148;55.328;86.106;2023-04-01T15:34:07;102616.53;;;-7.51;45.32
78800;BME280;68148;55.328;86.106;2023-04-01T15:37:16;102616.53;;;-7.60;44.55
78800;BME280;68148;55.328;86.106;2023-04-01T15:39:51;102609.69;;;-7.66;43.38
78800;BME280;68148;55.328;86.106;2023-04-01T15:47:42;102608.84;;;-7.69;45.03
78800;BME280;68148;55.328;86.106;2023-04-01T15:53:26;102619.06;;;-7.71;45.67
78800;BME280;68148;55.328;86.106;2023-04-01T15:59:29;102607.97;;;-7.76;45.10
78800;BME280;68148;55.328;86.106;2023-04-01T16:04:41;102606.28;;;-7.83;43.50
78800;BME280;68148;55.328;86.106;2023-04-01T16:18:28;102612.25;;;-7.83;43.39
78800;BME280;68148;55.328;86.106;2023-04-01T16:21:04;102607.09;;;-7.89;42.22
78800;BME280;68148;55.328;86.106;2023-04-01T16:23:56;102610.53;;;-7.91;41.47
78800;BME280;68148;55.328;86.106;2023-04-01T16:26:38;102602.81;;;-7.93;41.17
78800;BME280;68148;55.328;86.106;2023-04-01T16:29:16;102601.97;;;-7.95;41.96
78800;BME280;68148;55.328;86.106;2023-04-01T16:32:14;102601.97;;;-7.93;44.13
78800;BME280;68148;55.328;86.106;2023-04-01T16:42:50;102601.06;;;-8.23;45.47
78800;BME280;68148;55.328;86.106;2023-04-01T16:45:39;102603.59;;;-8.34;46.85
78800;BME280;68148;55.328;86.106;2023-04-01T16:48:18;102611.28;;;-8.43;48.81
78800;BME280;68148;55.328;86.106;2023-04-01T16:53:41;102593.31;;;-8.58;52.93
78800;BME280;68148;55.328;86.106;2023-04-01T16:58:42;102585.50;;;-8.87;53.30
78800;BME280;68148;55.328;86.106;2023-04-01T17:01:20;102602.53;;;-8.92;53.95
78800;BME280;68148;55.328;86.106;2023-04-01T17:04:00;102594.84;;;-8.97;54.14
78800;BME280;68148;55.328;86.106;2023-04-01T17:06:48;102588.00;;;-8.99;53.73
78800;BME280;68148;55.328;86.106;2023-04-01T17:12:42;102598.16;;;-9.15;53.59
78800;BME280;68148;55.328;86.106;2023-04-01T17:15:40;102592.16;;;-9.20;53.50
78800;BME280;68148;55.328;86.106;2023-04-01T17:18:30;102588.69;;;-9.25;55.24
78800;BME280;68148;55.328;86.106;2023-04-01T17:21:16;102587.81;;;-9.31;54.32
78800;BME280;68148;55.328;86.106;2023-04-01T17:27:34;102593.59;;;-9.57;55.29
78800;BME280;68148;55.328;86.106;2023-04-01T17:41:53;102604.31;;;-9.98;55.40
78800;BME280;68148;55.328;86.106;2023-04-01T18:05:22;102591.88;;;-10.51;57.13
78800;BME280;68148;55.328;86.106;2023-04-01T18:08:12;102595.22;;;-10.53;57.36
78800;BME280;68148;55.328;86.106;2023-04-01T18:20:04;102580.56;;;-10.73;58.20
78800;BME280;68148;55.328;86.106;2023-04-01T18:22:53;102581.47;;;-10.68;59.04
78800;BME280;68148;55.328;86.106;2023-04-01T18:25:53;102577.97;;;-10.76;59.63
78800;BME280;68148;55.328;86.106;2023-04-01T18:31:23;102585.44;;;-10.90;62.24
78800;BME280;68148;55.328;86.106;2023-04-01T18:34:39;102575.19;;;-10.96;61.47
78800;BME280;68148;55.328;86.106;2023-04-01T18:37:36;102573.44;;;-10.97;60.17
78800;BME280;68148;55.328;86.106;2023-04-01T18:49:54;102578.38;;;-11.11;60.26
78800;BME280;68148;55.328;86.106;2023-04-01T18:52:33;102574.06;;;-11.15;57.92
78800;BME280;68148;55.328;86.106;2023-04-01T19:00:26;102569.44;;;-11.43;60.45
78800;BME280;68148;55.328;86.106;2023-04-01T19:06:08;102572.78;;;-11.44;61.35
78800;BME280;68148;55.328;86.106;2023-04-01T19:08:40;102575.22;;;-11.52;60.22
78800;BME280;68148;55.328;86.106;2023-04-01T19:14:06;102569.25;;;-11.55;62.90
78800;BME280;68148;55.328;86.106;2023-04-01T19:19:43;102561.41;;;-11.66;64.20
78800;BME280;68148;55.328;86.106;2023-04-01T19:25:27;102564.75;;;-11.70;64.76
78800;BME280;68148;55.328;86.106;2023-04-01T19:33:25;102554.47;;;-11.76;65.03
78800;BME280;68148;55.328;86.106;2023-04-01T19:38:40;102545.13;;;-11.77;63.04
78800;BME280;68148;55.328;86.106;2023-04-01T19:48:05;102550.06;;;-11.88;64.98
78800;BME280;68148;55.328;86.106;2023-04-01T19:50:40;102538.84;;;-11.99;66.37
78800;BME280;68148;55.328;86.106;2023-04-01T19:53:29;102544.63;;;-12.08;66.36
78800;BME280;68148;55.328;86.106;2023-04-01T20:01:25;102545.09;;;-12.30;64.20
78800;BME280;68148;55.328;86.106;2023-04-01T20:03:58;102540.13;;;-12.24;63.71
78800;BME280;68148;55.328;86.106;2023-04-01T20:15:39;102533.50;;;-12.15;61.27
78800;BME280;68148;55.328;86.106;2023-04-01T20:18:48;102531.13;;;-12.05;62.10
78800;BME280;68148;55.328;86.106;2023-04-01T20:26:50;102535.13;;;-12.20;61.83
78800;BME280;68148;55.328;86.106;2023-04-01T20:29:40;102536.78;;;-12.22;62.14
78800;BME280;68148;55.328;86.106;2023-04-01T20:32:42;102544.31;;;-12.28;60.82
78800;BME280;68148;55.328;86.106;2023-04-01T20:46:23;102534.44;;;-13.00;63.17
78800;BME280;68148;55.328;86.106;2023-04-01T20:51:54;102521.47;;;-13.14;66.05
78800;BME280;68148;55.328;86.106;2023-04-01T21:00:28;102513.25;;;-13.01;65.61
78800;BME280;68148;55.328;86.106;2023-04-01T21:15:27;102520.38;;;-12.84;64.78
78800;BME280;68148;55.328;86.106;2023-04-01T21:18:21;102519.38;;;-12.91;65.00
78800;BME280;68148;55.328;86.106;2023-04-01T21:23:49;102514.19;;;-12.96;65.61
78800;BME280;68148;55.328;86.106;2023-04-01T21:32:52;102512.69;;;-12.86;64.06
78800;BME280;68148;55.328;86.106;2023-04-01T21:35:22;102519.53;;;-12.83;63.95
78800;BME280;68148;55.328;86.106;2023-04-01T21:41:02;102529.66;;;-12.85;65.07
78800;BME280;68148;55.328;86.106;2023-04-01T21:44:10;102521.00;;;-12.95;63.90
78800;BME280;68148;55.328;86.106;2023-04-01T22:03:33;102537.59;;;-13.10;63.06
78800;BME280;68148;55.328;86.106;2023-04-01T22:06:25;102541.03;;;-13.10;63.24
78800;BME280;68148;55.328;86.106;2023-04-01T22:20:03;102551.25;;;-13.48;64.20
78800;BME280;68148;55.328;86.106;2023-04-01T22:23:14;102557.75;;;-13.59;63.33
78800;BME280;68148;55.328;86.106;2023-04-01T22:26:09;102559.31;;;-13.64;63.94
78800;BME280;68148;55.328;86.106;2023-04-01T22:29:01;102556.63;;;-13.70;64.57
78800;BME280;68148;55.328;86.106;2023-04-01T22:31:41;102563.38;;;-13.71;64.26
78800;BME280;68148;55.328;86.106;2023-04-01T22:34:19;102562.69;;;-13.65;64.87
78800;BME280;68148;55.328;86.106;2023-04-01T22:37:22;102557.50;;;-13.70;65.48
78800;BME280;68148;55.328;86.106;2023-04-01T22:40:45;102556.53;;;-13.75;66.77
78800;BME280;68148;55.328;86.106;2023-04-01T22:42:45;102560.75;;;-13.75;65.79
78800;BME280;68148;55.328;86.106;2023-04-01T22:50:56;102553.53;;;-13.95;65.50